Terminal Aerodrome Forecast
Issued by NWS Hastings, NE

Home | Current Version | Previous Version | Text Only | Print | Product List | Glossary On
Versions: 1 2 3 4 5 6 7 8 9 10 11 12 13 14 15 16 17 18 19 20 21 22 23 24 25 26 27 28 29 30 31 32 33 34 35 36 37 38 39 40
350
FTUS43 KGID 241123
TAFGRI
TAF
KGRI 241123Z 2412/2512 VRB05KT 5SM BR OVC300
     FM241500 14006KT P6SM SCT080
     FM241700 12008KT P6SM VCTS BKN080CB
     FM242100 14012G20KT P6SM BKN050
     FM250300 14011KT P6SM VCTS OVC050CB
     FM251100 16007KT P6SM BKN050=

USA.gov is the U.S. government's official web portal to all federal, state and local government web resources and services.